Terminal Aerodrome Forecast
Issued by NWS

Home | Current Version | Previous Version | Text Only | Print | Product List | Glossary Off
Versions: 1 2 3 4 5 6 7 8 9 10 11 12 13 14 15 16 17

561
FTUS43 KICT 211137 AAA
TAFCNU
TAF AMD
KCNU 211137Z 2112/2212 17005KT P6SM FEW250
     FM211400 19010KT P6SM SCT150
     FM211900 19012KT P6SM FEW050 FEW200
     FM220200 17008KT P6SM FEW050 FEW250
     FM221100 15005KT P6SM FEW200=

USA.gov is the U.S. government's official web portal to all federal, state and local government web resources and services.